Time;durP1;ratioP1;P1;durP2;ratioP2;P2;SDS_P1;SDS_P2;PMS_P1;PMS_P2;Temp;Humidity;BMP_temperature;BMP_pressure;BME280_temperature;BME280_humidity;BME280_pressure;Samples;Min_cycle;Max_cycle;Signal;HPM_P1;HPM_P2
2021/03/31 00:01:21;;;;;;;;;;;;;;;22.27;23.16;98929.59;5042505;28;709;-75
2021/03/31 00:03:46;;;;;;;;;;;;;;;21.69;24.06;98928.72;5041994;28;747;-75
2021/03/31 00:06:12;;;;;;;;;;;;;;;21.70;23.65;98927.50;5042839;28;621;-75
2021/03/31 00:08:38;;;;;;;;;;;;;;;21.77;23.85;98930.25;5041486;28;916;-75
2021/03/31 00:11:04;;;;;;;;;;;;;;;21.81;23.73;98925.34;5042346;28;902;-75
2021/03/31 00:13:29;;;;;;;;;;;;;;;21.76;24.05;98928.66;5041130;28;1222;-75
2021/03/31 00:15:55;;;;;;;;;;;;;;;21.63;24.07;98923.94;5042786;28;642;-75
2021/03/31 00:18:21;;;;;;;;;;;;;;;21.50;24.05;98915.19;5041719;28;1894;-75
2021/03/31 00:20:46;;;;;;;;;;;;;;;21.60;24.21;98919.91;5042608;28;800;-75
2021/03/31 00:23:12;;;;;;;;;;;;;;;21.74;23.92;98916.13;5041962;28;869;-75
2021/03/31 00:25:38;;;;;;;;;;;;;;;21.72;23.86;98922.22;5041809;28;863;-74
2021/03/31 00:28:03;;;;;;;;;;;;;;;21.77;23.87;98913.25;5041710;28;1056;-74
2021/03/31 00:30:29;;;;;;;;;;;;;;;21.67;24.03;98919.84;5042050;28;1026;-75
2021/03/31 00:32:54;;;;;;;;;;;;;;;21.57;24.13;98909.47;5042012;28;595;-75
2021/03/31 00:35:20;;;;;;;;;;;;;;;21.51;24.31;98911.16;5041503;28;654;-75
2021/03/31 00:37:45;;;;;;;;;;;;;;;21.93;23.72;98909.81;5040690;28;1971;-75
2021/03/31 00:40:12;;;;;;;;;;;;;;;22.22;23.03;98910.22;5041013;28;964;-75
2021/03/31 00:42:37;;;;;;;;;;;;;;;22.61;22.56;98914.50;5041842;28;825;-75
2021/03/31 00:45:03;;;;;;;;;;;;;;;22.04;23.54;98921.00;5041482;28;674;-75
2021/03/31 00:47:29;;;;;;;;;;;;;;;21.85;23.51;98909.09;5041982;28;420;-75
2021/03/31 00:49:54;;;;;;;;;;;;;;;21.56;24.31;98911.50;5040978;28;1338;-75
2021/03/31 00:52:20;;;;;;;;;;;;;;;21.73;23.98;98906.81;5041547;28;847;-74
2021/03/31 00:54:45;;;;;;;;;;;;;;;21.71;24.02;98903.63;5041126;28;914;-75
2021/03/31 00:57:11;;;;;;;;;;;;;;;21.58;23.96;98908.22;5041041;28;1898;-75
2021/03/31 00:59:36;;;;;;;;;;;;;;;21.65;24.04;98899.63;5040667;28;662;-75
2021/03/31 01:02:01;;;;;;;;;;;;;;;21.62;24.02;98909.00;5041795;28;663;-75
2021/03/31 01:04:27;;;;;;;;;;;;;;;21.69;23.93;98902.44;5040921;28;1064;-75
2021/03/31 01:06:53;;;;;;;;;;;;;;;21.63;24.09;98907.75;5041634;28;868;-75
2021/03/31 01:09:18;;;;;;;;;;;;;;;21.59;23.89;98915.50;5041295;28;849;-75
2021/03/31 01:11:56;;;;;;;;;;;;;;;21.63;24.07;98906.97;5041688;28;662;-75
2021/03/31 01:14:30;;;;;;;;;;;;;;;21.61;24.14;98910.22;5041249;28;653;-76
2021/03/31 01:16:57;;;;;;;;;;;;;;;21.69;23.65;98903.22;5040877;28;1894;-76
2021/03/31 01:19:25;;;;;;;;;;;;;;;21.68;23.90;98907.28;5040113;28;882;-76
2021/03/31 01:22:03;;;;;;;;;;;;;;;21.66;23.95;98901.25;5041339;28;910;-76
2021/03/31 01:24:44;;;;;;;;;;;;;;;21.62;24.16;98899.69;5040972;28;916;-75
2021/03/31 01:27:12;;;;;;;;;;;;;;;22.03;23.33;98902.38;5040816;28;706;-76
2021/03/31 01:29:57;;;;;;;;;;;;;;;22.49;23.03;98903.75;5040920;28;640;-75
2021/03/31 01:32:39;;;;;;;;;;;;;;;22.18;23.15;98900.19;5041132;28;710;-75
2021/03/31 01:35:05;;;;;;;;;;;;;;;21.82;23.39;98903.47;5040399;28;897;-75
2021/03/31 01:37:31;;;;;;;;;;;;;;;21.79;23.76;98896.63;5040808;28;1977;-75
2021/03/31 01:39:57;;;;;;;;;;;;;;;21.77;23.58;98901.91;5040549;28;659;-75
2021/03/31 01:42:22;;;;;;;;;;;;;;;21.73;23.52;98904.00;5040277;28;721;-75
2021/03/31 01:44:48;;;;;;;;;;;;;;;21.76;23.83;98900.31;5040388;28;642;-75
2021/03/31 01:47:13;;;;;;;;;;;;;;;21.73;23.88;98900.34;5040832;28;669;-76
2021/03/31 01:49:39;;;;;;;;;;;;;;;21.77;23.78;98901.91;5039474;28;900;-75
2021/03/31 01:52:05;;;;;;;;;;;;;;;21.76;23.54;98900.31;5042313;28;952;-75
2021/03/31 01:54:31;;;;;;;;;;;;;;;21.71;23.72;98900.78;5043890;28;968;-75
2021/03/31 01:56:56;;;;;;;;;;;;;;;21.59;23.90;98895.66;5044790;28;1894;-75
2021/03/31 01:59:22;;;;;;;;;;;;;;;21.81;23.73;98899.03;5044799;28;595;-75
2021/03/31 02:01:49;;;;;;;;;;;;;;;21.53;24.11;98897.38;5044185;28;638;-75
2021/03/31 02:04:15;;;;;;;;;;;;;;;21.73;23.70;98892.66;5043713;28;915;-76
2021/03/31 02:06:40;;;;;;;;;;;;;;;22.30;22.85;98894.72;5045012;28;875;-76
2021/03/31 02:09:06;;;;;;;;;;;;;;;22.52;22.55;98891.53;5044014;28;869;-75
2021/03/31 02:11:31;;;;;;;;;;;;;;;22.19;23.01;98905.41;5044721;28;766;-75
2021/03/31 02:13:57;;;;;;;;;;;;;;;21.99;23.27;98901.63;5044415;28;673;-75
2021/03/31 02:16:22;;;;;;;;;;;;;;;21.76;23.61;98894.66;5044076;28;1907;-75
2021/03/31 02:18:48;;;;;;;;;;;;;;;21.71;23.63;98903.63;5043189;28;915;-75
2021/03/31 02:21:13;;;;;;;;;;;;;;;21.70;23.89;98895.53;5044791;28;919;-75
2021/03/31 02:23:39;;;;;;;;;;;;;;;21.60;23.90;98891.59;5042856;28;901;-75
2021/03/31 02:26:04;;;;;;;;;;;;;;;21.70;23.83;98896.31;5044883;28;693;-75
2021/03/31 02:28:33;;;;;;;;;;;;;;;21.62;23.81;98900.50;5043354;28;599;-75
2021/03/31 02:30:58;;;;;;;;;;;;;;;21.56;24.03;98893.69;5044309;28;1109;-75
2021/03/31 02:33:25;;;;;;;;;;;;;;;21.75;23.74;98895.84;5043667;28;912;-75
2021/03/31 02:35:50;;;;;;;;;;;;;;;21.69;23.78;98888.25;5044137;28;1052;-75
2021/03/31 02:38:16;;;;;;;;;;;;;;;21.72;23.78;98899.56;5042917;28;1902;-75
2021/03/31 02:40:43;;;;;;;;;;;;;;;21.53;24.08;98897.38;5043354;28;630;-75
2021/03/31 02:43:09;;;;;;;;;;;;;;;21.57;23.84;98898.13;5043673;28;719;-75
2021/03/31 02:45:35;;;;;;;;;;;;;;;21.67;23.79;98902.84;5043050;28;1012;-75
2021/03/31 02:48:01;;;;;;;;;;;;;;;21.59;23.72;98895.66;5042668;28;920;-75
2021/03/31 02:50:26;;;;;;;;;;;;;;;21.68;23.90;98895.16;5043644;28;822;-75
2021/03/31 02:52:52;;;;;;;;;;;;;;;22.23;23.04;98894.03;5043109;28;735;-73
2021/03/31 02:55:18;;;;;;;;;;;;;;;22.44;22.74;98895.75;5042273;28;1228;-75
2021/03/31 02:57:43;;;;;;;;;;;;;;;22.10;23.15;98902.28;5043393;28;1910;-75
2021/03/31 03:00:09;;;;;;;;;;;;;;;21.79;23.55;98899.47;5043220;28;1104;-75
2021/03/31 03:02:38;;;;;;;;;;;;;;;21.65;23.75;98896.81;5043031;28;813;-75
2021/03/31 03:05:03;;;;;;;;;;;;;;;21.82;23.49;98898.63;5043515;28;928;-75
2021/03/31 03:07:29;;;;;;;;;;;;;;;22.15;23.03;98903.88;5043622;28;739;-75
2021/03/31 03:09:54;;;;;;;;;;;;;;;22.31;23.00;98907.66;5043228;28;702;-75
2021/03/31 03:12:20;;;;;;;;;;;;;;;22.47;22.62;98909.03;5043160;28;603;-75
2021/03/31 03:14:46;;;;;;;;;;;;;;;21.99;23.18;98913.75;5043025;28;974;-75
2021/03/31 03:17:12;;;;;;;;;;;;;;;21.88;23.45;98915.16;5042777;28;1895;-75
2021/03/31 03:19:37;;;;;;;;;;;;;;;21.83;23.58;98908.72;5042374;28;878;-75
2021/03/31 03:22:03;;;;;;;;;;;;;;;21.87;23.50;98908.69;5043020;28;670;-75
2021/03/31 03:24:28;;;;;;;;;;;;;;;21.65;23.88;98904.50;5042369;28;623;-75
2021/03/31 03:26:54;;;;;;;;;;;;;;;21.81;23.50;98914.00;5042753;28;631;-75
2021/03/31 03:29:19;;;;;;;;;;;;;;;21.74;23.77;98914.09;5041905;28;1047;-75
2021/03/31 03:31:45;;;;;;;;;;;;;;;21.60;23.80;98908.59;5042468;28;1006;-75
2021/03/31 03:34:10;;;;;;;;;;;;;;;21.55;24.03;98911.91;5042915;28;962;-75
2021/03/31 03:36:36;;;;;;;;;;;;;;;21.77;23.65;98912.47;5042561;28;1977;-75
2021/03/31 03:39:02;;;;;;;;;;;;;;;21.77;23.65;98918.13;5042804;28;666;-75
2021/03/31 03:41:28;;;;;;;;;;;;;;;21.65;23.63;98910.97;5043247;28;606;-76
2021/03/31 03:43:54;;;;;;;;;;;;;;;21.65;23.59;98922.28;5041436;28;926;-75
2021/03/31 03:46:19;;;;;;;;;;;;;;;21.70;23.59;98919.00;5041968;28;897;-75
2021/03/31 03:48:45;;;;;;;;;;;;;;;21.75;23.85;98927.03;5041557;28;1085;-75
2021/03/31 03:51:10;;;;;;;;;;;;;;;21.66;23.72;98926.75;5043702;28;633;-75
2021/03/31 03:53:36;;;;;;;;;;;;;;;21.57;23.91;98926.44;5042231;28;851;-74
2021/03/31 03:56:02;;;;;;;;;;;;;;;21.82;23.68;98924.13;5042861;28;1026;-75
2021/03/31 03:58:27;;;;;;;;;;;;;;;22.24;23.10;98932.50;5041250;28;1985;-75
2021/03/31 04:00:56;;;;;;;;;;;;;;;22.48;22.75;98939.00;5042742;28;983;-74
2021/03/31 04:03:21;;;;;;;;;;;;;;;22.24;22.96;98936.13;5042042;28;708;-75
2021/03/31 04:05:47;;;;;;;;;;;;;;;21.78;23.31;98942.38;5042999;28;689;-75
2021/03/31 04:08:12;;;;;;;;;;;;;;;21.73;23.48;98937.97;5042129;28;551;-75
2021/03/31 04:10:38;;;;;;;;;;;;;;;21.65;23.73;98942.13;5041801;28;835;-74
2021/03/31 04:13:03;;;;;;;;;;;;;;;21.63;23.92;98944.56;5040551;28;852;-77
2021/03/31 04:15:29;;;;;;;;;;;;;;;21.57;23.63;98938.56;5040670;28;903;-77
2021/03/31 04:17:54;;;;;;;;;;;;;;;21.70;23.82;98940.84;5041480;28;1914;-74
2021/03/31 04:20:20;;;;;;;;;;;;;;;21.77;23.74;98935.91;5041717;28;674;-74
2021/03/31 04:22:46;;;;;;;;;;;;;;;21.75;23.30;98948.88;5041370;28;648;-74
2021/03/31 04:25:12;;;;;;;;;;;;;;;21.81;23.63;98936.69;5040604;28;897;-75
2021/03/31 04:27:37;;;;;;;;;;;;;;;21.81;23.62;98944.34;5040475;28;1345;-74
2021/03/31 04:30:04;;;;;;;;;;;;;;;21.57;23.99;98946.28;5041587;28;1043;-74
2021/03/31 04:32:29;;;;;;;;;;;;;;;21.51;23.98;98945.13;5041702;28;690;-74
2021/03/31 04:34:55;;;;;;;;;;;;;;;21.56;24.00;98947.50;5040660;28;622;-74
2021/03/31 04:37:20;;;;;;;;;;;;;;;21.52;24.04;98949.56;5040854;28;1910;-74
2021/03/31 04:39:46;;;;;;;;;;;;;;;21.61;23.95;98949.88;5040788;28;1069;-74
2021/03/31 04:42:11;;;;;;;;;;;;;;;21.64;23.86;98949.00;5040782;28;844;-74
2021/03/31 04:44:36;;;;;;;;;;;;;;;21.53;23.77;98949.13;5040974;28;844;-74
2021/03/31 04:47:02;;;;;;;;;;;;;;;21.79;23.56;98950.44;5041129;28;690;-74
2021/03/31 04:49:28;;;;;;;;;;;;;;;20.87;24.93;98957.03;5041086;28;915;-74
2021/03/31 04:51:53;;;;;;;;;;;;;;;22.23;23.02;98956.41;5041123;28;651;-75
2021/03/31 04:54:18;;;;;;;;;;;;;;;22.23;23.04;98951.53;5040818;28;932;-74
2021/03/31 04:56:44;;;;;;;;;;;;;;;22.35;22.91;98947.31;5040551;28;1975;-74
2021/03/31 04:59:09;;;;;;;;;;;;;;;22.19;22.99;98962.13;5040918;28;852;-74
2021/03/31 05:01:35;;;;;;;;;;;;;;;21.97;23.36;98955.09;5041373;28;654;-74
2021/03/31 05:04:00;;;;;;;;;;;;;;;21.78;23.62;98960.19;5040665;28;662;-74
2021/03/31 05:06:26;;;;;;;;;;;;;;;21.73;23.85;98952.16;5040787;28;658;-74
2021/03/31 05:08:51;;;;;;;;;;;;;;;21.75;23.58;98954.56;5040535;28;1071;-74
2021/03/31 05:11:17;;;;;;;;;;;;;;;21.67;23.63;98956.69;5040502;28;859;-74
2021/03/31 05:13:42;;;;;;;;;;;;;;;21.77;23.73;98969.91;5040552;28;923;-74
2021/03/31 05:16:08;;;;;;;;;;;;;;;21.76;23.70;98951.31;5040648;28;662;-74
2021/03/31 05:18:33;;;;;;;;;;;;;;;21.61;23.85;98966.88;5040449;28;1969;-74
2021/03/31 05:20:59;;;;;;;;;;;;;;;21.65;23.70;98964.78;5040761;28;659;-74
2021/03/31 05:23:24;;;;;;;;;;;;;;;21.68;23.57;98966.78;5039119;28;1151;-74
2021/03/31 05:25:49;;;;;;;;;;;;;;;21.53;23.82;98965.31;5040350;28;828;-74
2021/03/31 05:28:15;;;;;;;;;;;;;;;21.57;23.69;98968.94;5040282;28;871;-74
2021/03/31 05:30:40;;;;;;;;;;;;;;;22.04;23.26;98957.84;5040344;28;994;-74
2021/03/31 05:33:06;;;;;;;;;;;;;;;22.33;22.90;98967.59;5040211;28;651;-74
2021/03/31 05:35:31;;;;;;;;;;;;;;;22.36;22.84;98965.91;5040436;28;662;-74
2021/03/31 05:37:57;;;;;;;;;;;;;;;22.17;23.04;98964.56;5040081;28;1906;-74
2021/03/31 05:40:22;;;;;;;;;;;;;;;21.74;23.64;98976.41;5039386;28;1120;-74
2021/03/31 05:42:48;;;;;;;;;;;;;;;21.88;23.30;98966.16;5039579;28;1188;-74
2021/03/31 05:45:14;;;;;;;;;;;;;;;21.87;23.34;98973.03;5040452;28;650;-74
2021/03/31 05:47:43;;;;;;;;;;;;;;;21.63;23.73;98970.06;5040202;28;755;-74
2021/03/31 05:50:09;;;;;;;;;;;;;;;21.69;23.79;98965.53;5040048;28;667;-74
2021/03/31 05:52:35;;;;;;;;;;;;;;;21.63;23.61;98964.41;5039877;28;987;-74
2021/03/31 05:55:03;;;;;;;;;;;;;;;21.58;23.89;98962.03;5039822;28;889;-73
2021/03/31 05:57:32;;;;;;;;;;;;;;;21.63;23.84;98970.06;5040194;28;1894;-74
2021/03/31 05:59:58;;;;;;;;;;;;;;;21.74;23.75;98970.75;5040232;28;634;-73
2021/03/31 06:02:23;;;;;;;;;;;;;;;22.00;23.54;98971.25;5040106;28;750;-74
2021/03/31 06:04:50;;;;;;;;;;;;;;;22.25;23.08;98968.09;5039572;28;689;-74
2021/03/31 06:07:16;;;;;;;;;;;;;;;22.50;22.46;98967.75;5039883;28;944;-74
2021/03/31 06:10:00;;;;;;;;;;;;;;;22.07;23.11;98959.81;5039232;28;904;-73
2021/03/31 06:12:29;;;;;;;;;;;;;;;21.64;23.76;98968.03;5040109;28;602;-74
2021/03/31 06:14:54;;;;;;;;;;;;;;;21.71;23.59;98951.78;5039807;28;744;-73
2021/03/31 06:17:20;;;;;;;;;;;;;;;21.65;23.57;98952.66;5040014;28;1977;-74
2021/03/31 06:19:46;;;;;;;;;;;;;;;21.74;23.67;98959.41;5039713;28;678;-74
2021/03/31 06:22:36;;;;;;;;;;;;;;;21.59;23.87;98960.81;5039677;28;932;-74
2021/03/31 06:25:07;;;;;;;;;;;;;;;21.69;23.87;98956.25;5039334;28;808;-74
2021/03/31 06:27:33;;;;;;;;;;;;;;;21.67;23.90;98965.19;5039855;28;642;-74
2021/03/31 06:30:05;;;;;;;;;;;;;;;21.75;23.57;98955.34;5038876;28;1124;-74
2021/03/31 06:32:40;;;;;;;;;;;;;;;21.57;24.03;98961.22;5038948;28;758;-74
2021/03/31 06:35:06;;;;;;;;;;;;;;;21.66;23.78;98962.75;5038894;28;674;-74
2021/03/31 06:37:36;;;;;;;;;;;;;;;21.50;24.04;98960.50;5039175;28;1902;-74
2021/03/31 06:40:03;;;;;;;;;;;;;;;21.45;24.18;98958.13;5041800;28;807;-74
2021/03/31 06:42:36;;;;;;;;;;;;;;;21.91;23.59;98962.44;5042254;28;984;-74
2021/03/31 06:45:21;;;;;;;;;;;;;;;22.16;23.26;98957.28;5042266;28;673;-74
2021/03/31 06:47:57;;;;;;;;;;;;;;;22.43;22.88;98962.16;5041525;28;667;-74
2021/03/31 06:50:23;;;;;;;;;;;;;;;21.96;23.42;98953.47;5041390;28;631;-74
2021/03/31 06:52:58;;;;;;;;;;;;;;;21.69;23.77;98957.03;5041576;28;1050;-74
2021/03/31 06:55:24;;;;;;;;;;;;;;;21.60;23.66;98956.75;5041591;28;867;-74
2021/03/31 06:57:53;;;;;;;;;;;;;;;21.77;23.46;98958.59;5042015;28;1970;-74
2021/03/31 07:00:39;;;;;;;;;;;;;;;21.60;23.99;98956.75;5041953;28;694;-74
2021/03/31 07:03:08;;;;;;;;;;;;;;;21.51;24.05;98962.13;5041663;28;698;-74
2021/03/31 07:05:34;;;;;;;;;;;;;;;21.68;23.84;98965.97;5041796;28;662;-73
2021/03/31 07:08:03;;;;;;;;;;;;;;;21.59;23.73;98960.81;5041817;28;948;-74
2021/03/31 07:10:29;;;;;;;;;;;;;;;21.65;23.79;98967.59;5041505;28;834;-75
2021/03/31 07:12:55;;;;;;;;;;;;;;;21.60;23.86;98965.25;5041823;28;769;-74
2021/03/31 07:15:25;;;;;;;;;;;;;;;21.73;23.82;98951.34;5041654;28;682;-74
2021/03/31 07:18:01;;;;;;;;;;;;;;;22.18;22.96;98963.34;5041396;28;1898;-74
2021/03/31 07:20:27;;;;;;;;;;;;;;;22.31;22.77;98958.69;5041915;28;606;-74
2021/03/31 07:22:53;;;;;;;;;;;;;;;22.31;22.75;98958.69;5041556;28;864;-73
2021/03/31 07:25:19;;;;;;;;;;;;;;;21.81;23.36;98953.69;5041129;28;1140;-74
2021/03/31 07:27:44;;;;;;;;;;;;;;;21.70;23.49;98958.66;5041652;28;963;-74
2021/03/31 07:30:11;;;;;;;;;;;;;;;21.65;23.41;98959.09;5016804;28;710778;-74
2021/03/31 07:32:39;;;;;;;;;;;;;;;17.89;23.84;98383.78;5042432;28;727;-74
2021/03/31 07:35:05;;;;;;;;;;;;;;;21.66;23.79;98952.25;5042135;28;714;-74
2021/03/31 07:37:31;;;;;;;;;;;;;;;21.66;23.78;98946.56;5041360;28;1976;-74
2021/03/31 07:39:57;;;;;;;;;;;;;;;21.65;23.91;98949.81;5041587;28;869;-74
2021/03/31 07:42:23;;;;;;;;;;;;;;;21.68;23.56;98952.63;5025416;28;1136;-74
2021/03/31 07:44:48;;;;;;;;;;;;;;;21.68;23.80;98949.78;5042064;28;701;-74
2021/03/31 07:47:14;;;;;;;;;;;;;;;21.72;23.65;98950.53;5041598;28;685;-74
2021/03/31 07:49:40;;;;;;;;;;;;;;;21.97;23.28;98952.28;5040304;28;673;-74
2021/03/31 07:52:06;;;;;;;;;;;;;;;22.12;23.13;98950.06;5041145;28;966;-74
2021/03/31 07:54:34;;;;;;;;;;;;;;;22.38;22.79;98945.63;5041615;28;906;-74
2021/03/31 07:57:18;;;;;;;;;;;;;;;22.12;22.74;98950.06;5041285;28;1988;-74
2021/03/31 07:59:44;;;;;;;;;;;;;;;21.89;23.45;98945.06;5042111;28;635;-74
2021/03/31 08:02:09;;;;;;;;;;;;;;;21.85;23.48;98942.28;5041961;28;622;-74
2021/03/31 08:04:35;;;;;;;;;;;;;;;21.82;23.39;98943.94;5041261;28;1156;-74
2021/03/31 08:07:02;;;;;;;;;;;;;;;21.76;23.34;98951.31;5041754;28;1047;-74
2021/03/31 08:09:30;;;;;;;;;;;;;;;21.70;23.72;98952.97;5040905;28;1320;-74
2021/03/31 08:11:56;;;;;;;;;;;;;;;21.68;23.45;98944.13;5041661;28;857;-74
2021/03/31 08:14:27;;;;;;;;;;;;;;;21.71;23.60;98926.28;5041818;28;698;-74
2021/03/31 08:16:54;;;;;;;;;;;;;;;21.68;23.56;98938.44;5041876;28;1906;-74
2021/03/31 08:19:20;;;;;;;;;;;;;;;21.52;23.83;98926.91;5041637;28;630;-74
2021/03/31 08:21:47;;;;;;;;;;;;;;;21.61;23.75;98938.53;5041677;28;839;-74
2021/03/31 08:24:12;;;;;;;;;;;;;;;21.69;23.38;98928.72;5041039;28;966;-74
2021/03/31 08:26:56;;;;;;;;;;;;;;;21.82;23.20;98929.78;5041765;28;766;-74
2021/03/31 08:29:22;;;;;;;;;;;;;;;22.14;22.97;98922.91;5041312;28;705;-74
2021/03/31 08:31:48;;;;;;;;;;;;;;;22.33;22.42;98927.91;5041437;28;1050;-74
2021/03/31 08:34:14;;;;;;;;;;;;;;;22.25;22.57;98931.25;5041414;28;629;-74
2021/03/31 08:36:40;;;;;;;;;;;;;;;21.81;23.35;98928.19;5041259;28;1985;-75
2021/03/31 08:39:06;;;;;;;;;;;;;;;21.78;23.38;98917.69;5041205;28;881;-75
2021/03/31 08:41:31;;;;;;;;;;;;;;;21.53;23.39;98914.34;5040835;28;975;-69
2021/03/31 08:44:09;;;;;;;;;;;;;;;22.04;22.76;98921.00;5041219;28;709;-69
2021/03/31 08:46:35;;;;;;;;;;;;;;;22.32;22.72;98909.25;5041318;28;674;-69
2021/03/31 08:49:00;;;;;;;;;;;;;;;22.56;22.06;98912.94;5040422;28;992;-71
2021/03/31 08:51:26;;;;;;;;;;;;;;;22.30;22.31;98923.06;5043030;28;937;-75
2021/03/31 08:53:51;;;;;;;;;;;;;;;22.27;22.76;98915.41;5041080;28;938;-71
2021/03/31 08:56:17;;;;;;;;;;;;;;;22.34;22.54;98912.47;5042011;28;607;-76
2021/03/31 08:58:43;;;;;;;;;;;;;;;22.17;22.66;98912.72;5041561;28;1902;-76
2021/03/31 09:01:08;;;;;;;;;;;;;;;21.94;23.10;98908.56;5041632;28;718;-76
2021/03/31 09:03:34;;;;;;;;;;;;;;;22.01;22.83;98910.50;5041097;28;1130;-75
2021/03/31 09:06:03;;;;;;;;;;;;;;;21.90;23.01;98910.66;5043864;28;864;-76
2021/03/31 09:08:29;;;;;;;;;;;;;;;21.94;22.88;98907.78;5041853;28;943;-76
2021/03/31 09:10:55;;;;;;;;;;;;;;;22.00;22.74;98903.22;5043498;28;631;-76
2021/03/31 09:13:24;;;;;;;;;;;;;;;21.98;22.96;98905.69;5041892;28;658;-76
2021/03/31 09:15:54;;;;;;;;;;;;;;;21.79;23.04;98893.00;5043344;28;662;-76
2021/03/31 09:18:19;;;;;;;;;;;;;;;21.78;23.28;98892.19;5041571;28;1973;-77
2021/03/31 09:20:44;;;;;;;;;;;;;;;21.74;23.19;98897.09;5042510;28;865;-76
2021/03/31 09:23:18;;;;;;;;;;;;;;;21.87;22.88;98893.72;5042369;28;963;-76
2021/03/31 09:25:43;;;;;;;;;;;;;;;21.89;22.97;98902.56;5042848;28;669;-76
2021/03/31 09:28:15;;;;;;;;;;;;;;;21.78;23.33;98892.19;5041458;28;595;-76
2021/03/31 09:30:40;;;;;;;;;;;;;;;22.14;22.52;98886.06;5042259;28;1187;-77
2021/03/31 09:33:13;;;;;;;;;;;;;;;22.53;22.07;98879.75;5042069;28;860;-77
2021/03/31 09:35:38;;;;;;;;;;;;;;;22.17;22.56;98885.19;5041987;28;922;-76
2021/03/31 09:38:04;;;;;;;;;;;;;;;21.95;22.91;98883.88;5042277;28;1983;-76
2021/03/31 09:40:30;;;;;;;;;;;;;;;21.92;22.99;98873.41;5042667;28;726;-77
2021/03/31 09:42:56;;;;;;;;;;;;;;;21.87;22.92;98888.03;5042763;28;642;-76
2021/03/31 09:45:25;;;;;;;;;;;;;;;21.87;22.85;98882.38;5043089;28;661;-77
2021/03/31 09:47:51;;;;;;;;;;;;;;;21.95;22.72;98878.19;5042167;28;971;-77
2021/03/31 09:50:16;;;;;;;;;;;;;;;21.76;23.21;98866.31;5041935;28;905;-76
2021/03/31 09:52:41;;;;;;;;;;;;;;;21.85;22.69;98865.78;5042361;28;914;-76
2021/03/31 09:55:07;;;;;;;;;;;;;;;21.71;23.10;98861.13;5042473;28;666;-77
2021/03/31 09:57:35;;;;;;;;;;;;;;;21.66;22.92;98861.59;5043095;28;1961;-77
2021/03/31 10:00:02;;;;;;;;;;;;;;;21.67;23.21;98863.22;5042586;28;655;-76
2021/03/31 10:02:39;;;;;;;;;;;;;;;22.01;22.74;98859.50;5042097;28;1018;-77
2021/03/31 10:05:05;;;;;;;;;;;;;;;22.38;22.18;98852.06;5042204;28;831;-76
2021/03/31 10:07:31;;;;;;;;;;;;;;;22.48;22.03;98862.44;5042375;28;820;-77
2021/03/31 10:09:56;;;;;;;;;;;;;;;22.08;22.41;98853.72;5042260;28;618;-77
2021/03/31 10:12:22;;;;;;;;;;;;;;;21.96;22.56;98852.25;5043517;28;669;-77
2021/03/31 10:14:49;;;;;;;;;;;;;;;21.83;22.76;98843.56;5046484;28;710;-77
2021/03/31 10:17:15;;;;;;;;;;;;;;;21.74;23.09;98851.78;5046270;28;1875;-77
2021/03/31 10:19:40;;;;;;;;;;;;;;;21.81;22.82;98856.53;5045077;28;931;-77
2021/03/31 10:22:06;;;;;;;;;;;;;;;21.73;22.98;98833.19;5046027;28;940;-76
2021/03/31 10:24:39;;;;;;;;;;;;;;;21.76;22.73;98832.34;5046038;28;662;-76
2021/03/31 10:27:04;;;;;;;;;;;;;;;21.76;22.81;98838.00;5047199;28;686;-77
2021/03/31 10:29:30;;;;;;;;;;;;;;;21.64;23.01;98824.41;5045866;28;722;-76
2021/03/31 10:31:58;;;;;;;;;;;;;;;21.66;22.83;98821.13;5046429;28;1041;-77
2021/03/31 10:34:23;;;;;;;;;;;;;;;21.75;22.88;98825.03;5045989;28;894;-76
2021/03/31 10:50:12;;;;;;;;;;;;;;;21.64;22.84;98824.41;5045578;28;948;-77
2021/03/31 10:52:50;;;;;;;;;;;;;;;21.92;22.69;98811.06;5046146;28;650;-77
2021/03/31 10:55:15;;;;;;;;;;;;;;;22.23;22.10;98806.97;5045654;28;662;-77
2021/03/31 10:57:41;;;;;;;;;;;;;;;22.29;22.16;98802.41;5046381;28;1894;-78
2021/03/31 11:00:07;;;;;;;;;;;;;;;22.19;22.21;98803.38;5045781;28;770;-77
2021/03/31 11:02:32;;;;;;;;;;;;;;;21.98;22.58;98798.03;5044841;28;1331;-76
2021/03/31 11:04:58;;;;;;;;;;;;;;;21.92;22.79;98799.72;5045143;28;845;-77
2021/03/31 11:07:23;;;;;;;;;;;;;;;21.84;22.53;98794.16;5046384;28;876;-77
2021/03/31 11:09:49;;;;;;;;;;;;;;;22.13;22.19;98802.25;5045504;28;655;-78
2021/03/31 11:12:15;;;;;;;;;;;;;;;22.24;22.18;98793.56;5045211;28;1127;-77
2021/03/31 11:14:40;;;;;;;;;;;;;;;22.42;21.96;98794.06;5044507;28;619;-77
2021/03/31 11:17:17;;;;;;;;;;;;;;;22.34;22.25;98793.41;5045709;28;1906;-77
2021/03/31 11:19:58;;;;;;;;;;;;;;;22.14;22.31;98794.56;5044638;28;919;-77
2021/03/31 11:27:51;;;;;;;;;;;;;;;21.80;22.84;98782.06;5045791;28;672;-77
2021/03/31 11:30:17;;;;;;;;;;;;;;;21.79;22.84;98771.97;5044994;28;1064;-77
2021/03/31 11:32:43;;;;;;;;;;;;;;;21.85;22.40;98766.63;5045256;28;1060;-77
2021/03/31 11:35:08;;;;;;;;;;;;;;;21.76;22.91;98772.84;5044792;28;899;-76
2021/03/31 11:37:34;;;;;;;;;;;;;;;21.80;22.62;98765.06;5045615;28;1906;-76
2021/03/31 11:39:59;;;;;;;;;;;;;;;21.95;22.68;98759.19;5044536;28;697;-77
2021/03/31 11:42:25;;;;;;;;;;;;;;;21.94;22.66;98754.75;5045441;28;702;-77
2021/03/31 11:44:50;;;;;;;;;;;;;;;21.89;22.72;98750.38;5043924;28;1060;-77
2021/03/31 11:47:16;;;;;;;;;;;;;;;21.95;22.42;98753.53;5045092;28;976;-77
2021/03/31 11:49:41;;;;;;;;;;;;;;;21.93;22.56;98750.34;5044093;28;882;-77
2021/03/31 11:52:07;;;;;;;;;;;;;;;21.76;22.61;98747.34;5045400;28;861;-77
2021/03/31 11:54:32;;;;;;;;;;;;;;;21.74;22.75;98749.00;5043934;28;670;-77
2021/03/31 11:56:58;;;;;;;;;;;;;;;21.91;22.56;98741.44;5044960;28;1929;-77
2021/03/31 11:59:23;;;;;;;;;;;;;;;21.78;22.63;98750.56;5043954;28;702;-77
2021/03/31 12:01:49;;;;;;;;;;;;;;;21.85;22.71;98741.94;5044890;28;935;-77
2021/03/31 12:04:15;;;;;;;;;;;;;;;21.83;22.66;98741.56;5043962;28;924;-77
2021/03/31 12:06:41;;;;;;;;;;;;;;;21.79;22.52;98729.47;5044494;28;938;-77
2021/03/31 12:09:08;;;;;;;;;;;;;;;21.75;22.62;98728.72;5044138;28;613;-77
2021/03/31 12:11:34;;;;;;;;;;;;;;;21.75;22.71;98722.28;5045293;28;680;-76
2021/03/31 12:13:59;;;;;;;;;;;;;;;21.87;22.66;98718.06;5044390;28;698;-77
2021/03/31 12:16:25;;;;;;;;;;;;;;;22.02;22.29;98725.06;5044634;28;910;-77
2021/03/31 12:18:50;;;;;;;;;;;;;;;22.51;21.64;98728.28;5043262;28;1975;-77
2021/03/31 12:21:15;;;;;;;;;;;;;;;22.42;21.69;98719.53;5045262;28;856;-76
2021/03/31 12:23:41;;;;;;;;;;;;;;;22.09;22.18;98711.59;5043899;28;614;-77
2021/03/31 12:26:07;;;;;;;;;;;;;;;21.97;22.58;98717.09;5045207;28;678;-77
2021/03/31 12:28:34;;;;;;;;;;;;;;;21.67;22.93;98715.94;5043169;28;611;-77
2021/03/31 12:31:00;;;;;;;;;;;;;;;21.81;22.61;98704.38;5043873;28;1049;-77
2021/03/31 12:33:26;;;;;;;;;;;;;;;21.92;22.36;98697.72;5042934;28;857;-77
2021/03/31 12:35:51;;;;;;;;;;;;;;;21.84;22.58;98697.84;5043405;28;877;-77
2021/03/31 12:38:20;;;;;;;;;;;;;;;21.78;22.81;98688.22;5043325;28;1922;-77
2021/03/31 12:40:45;;;;;;;;;;;;;;;21.78;22.87;98682.56;5044733;28;686;-77
2021/03/31 12:43:11;;;;;;;;;;;;;;;22.15;22.54;98689.25;5044088;28;741;-77
2021/03/31 12:45:37;;;;;;;;;;;;;;;22.33;22.37;98678.41;5044220;28;895;-77
2021/03/31 12:48:02;;;;;;;;;;;;;;;22.46;22.23;98683.41;5043085;28;929;-77
2021/03/31 12:50:31;;;;;;;;;;;;;;;22.50;21.82;98675.66;5044019;28;955;-77
2021/03/31 12:53:03;;;;;;;;;;;;;;;22.12;22.57;98669.47;5044002;28;694;-77
2021/03/31 12:55:38;;;;;;;;;;;;;;;22.19;22.10;98678.66;5043726;28;750;-77
2021/03/31 12:58:07;;;;;;;;;;;;;;;21.90;22.63;98663.34;5043191;28;1910;-76
2021/03/31 13:00:32;;;;;;;;;;;;;;;21.93;22.62;98665.34;5043608;28;913;-76
2021/03/31 13:02:58;;;;;;;;;;;;;;;21.90;23.06;98664.16;5043060;28;948;-77
2021/03/31 13:05:23;;;;;;;;;;;;;;;21.77;22.97;98663.97;5043759;28;875;-77
2021/03/31 13:07:49;;;;;;;;;;;;;;;21.75;23.17;98643.75;5043657;28;638;-77
2021/03/31 13:10:15;;;;;;;;;;;;;;;21.98;22.62;98642.16;5043201;28;638;-77
2021/03/31 13:12:53;;;;;;;;;;;;;;;21.81;23.12;98653.38;5044010;28;670;-77
2021/03/31 13:15:26;;;;;;;;;;;;;;;21.69;23.37;98639.03;5043044;28;1121;-77
2021/03/31 13:33:44;;;;;;;;;;;;;;;21.82;22.82;98632.31;5042430;28;851;-77
2021/03/31 13:38:53;;;;;;;;;;;;;;;21.81;23.13;98625.06;5042183;28;1976;-77
2021/03/31 13:41:19;;;;;;;;;;;;;;;21.76;22.84;98622.72;5043673;28;738;-77